sensor_id;sensor_type;location;lat;lon;timestamp;P1;durP1;ratioP1;P2;durP2;ratioP2
3405;SDS011;10008;48.682;9.016;2023-03-01T00:00:14;31.73;;;20.47;;
3405;SDS011;10008;48.682;9.016;2023-03-01T00:02:40;29.43;;;19.00;;
3405;SDS011;10008;48.682;9.016;2023-03-01T00:05:06;32.50;;;19.27;;
3405;SDS011;10008;48.682;9.016;2023-03-01T00:07:32;30.17;;;19.73;;
3405;SDS011;10008;48.682;9.016;2023-03-01T00:09:58;29.47;;;19.00;;
3405;SDS011;10008;48.682;9.016;2023-03-01T00:12:24;29.00;;;19.67;;
3405;SDS011;10008;48.682;9.016;2023-03-01T00:14:49;29.90;;;20.47;;
3405;SDS011;10008;48.682;9.016;2023-03-01T00:17:15;31.97;;;19.30;;
3405;SDS011;10008;48.682;9.016;2023-03-01T00:19:42;32.60;;;19.90;;
3405;SDS011;10008;48.682;9.016;2023-03-01T00:22:07;34.07;;;21.00;;
3405;SDS011;10008;48.682;9.016;2023-03-01T00:24:33;32.10;;;19.57;;
3405;SDS011;10008;48.682;9.016;2023-03-01T00:26:59;28.97;;;19.37;;
3405;SDS011;10008;48.682;9.016;2023-03-01T00:29:25;30.33;;;19.33;;
3405;SDS011;10008;48.682;9.016;2023-03-01T00:31:51;32.90;;;19.77;;
3405;SDS011;10008;48.682;9.016;2023-03-01T00:34:17;31.20;;;20.63;;
3405;SDS011;10008;48.682;9.016;2023-03-01T00:36:43;33.00;;;20.60;;
3405;SDS011;10008;48.682;9.016;2023-03-01T00:39:13;33.60;;;22.63;;
3405;SDS011;10008;48.682;9.016;2023-03-01T00:41:40;35.17;;;22.30;;
3405;SDS011;10008;48.682;9.016;2023-03-01T00:44:07;30.17;;;19.70;;
3405;SDS011;10008;48.682;9.016;2023-03-01T00:46:34;30.87;;;19.50;;
3405;SDS011;10008;48.682;9.016;2023-03-01T00:49:00;35.90;;;20.77;;
3405;SDS011;10008;48.682;9.016;2023-03-01T00:51:27;34.40;;;20.83;;
3405;SDS011;10008;48.682;9.016;2023-03-01T00:53:58;31.17;;;19.70;;
3405;SDS011;10008;48.682;9.016;2023-03-01T00:56:25;30.07;;;20.07;;
3405;SDS011;10008;48.682;9.016;2023-03-01T00:58:52;32.77;;;19.97;;
3405;SDS011;10008;48.682;9.016;2023-03-01T01:01:22;30.33;;;20.13;;
3405;SDS011;10008;48.682;9.016;2023-03-01T01:03:56;30.17;;;18.67;;
3405;SDS011;10008;48.682;9.016;2023-03-01T01:06:31;31.27;;;19.70;;
3405;SDS011;10008;48.682;9.016;2023-03-01T01:08:59;31.47;;;19.67;;
3405;SDS011;10008;48.682;9.016;2023-03-01T01:11:27;31.53;;;19.20;;
3405;SDS011;10008;48.682;9.016;2023-03-01T01:13:54;31.63;;;19.90;;
3405;SDS011;10008;48.682;9.016;2023-03-01T01:16:22;30.33;;;19.23;;
3405;SDS011;10008;48.682;9.016;2023-03-01T01:18:49;32.63;;;20.17;;
3405;SDS011;10008;48.682;9.016;2023-03-01T01:21:16;29.93;;;18.53;;
3405;SDS011;10008;48.682;9.016;2023-03-01T01:23:44;31.20;;;20.03;;
3405;SDS011;10008;48.682;9.016;2023-03-01T01:26:21;31.80;;;19.03;;
3405;SDS011;10008;48.682;9.016;2023-03-01T01:28:49;31.93;;;19.30;;
3405;SDS011;10008;48.682;9.016;2023-03-01T01:31:16;35.83;;;20.40;;
3405;SDS011;10008;48.682;9.016;2023-03-01T01:33:42;33.40;;;20.20;;
3405;SDS011;10008;48.682;9.016;2023-03-01T01:36:08;30.87;;;18.80;;
3405;SDS011;10008;48.682;9.016;2023-03-01T01:38:34;33.10;;;20.23;;
3405;SDS011;10008;48.682;9.016;2023-03-01T01:41:01;30.87;;;20.40;;
3405;SDS011;10008;48.682;9.016;2023-03-01T01:43:29;30.70;;;20.80;;
3405;SDS011;10008;48.682;9.016;2023-03-01T01:46:40;35.10;;;20.43;;
3405;SDS011;10008;48.682;9.016;2023-03-01T01:49:15;30.23;;;19.53;;
3405;SDS011;10008;48.682;9.016;2023-03-01T01:51:40;31.27;;;21.53;;
3405;SDS011;10008;48.682;9.016;2023-03-01T01:54:13;31.17;;;19.90;;
3405;SDS011;10008;48.682;9.016;2023-03-01T01:56:44;31.80;;;21.20;;
3405;SDS011;10008;48.682;9.016;2023-03-01T01:59:14;32.63;;;20.70;;
3405;SDS011;10008;48.682;9.016;2023-03-01T02:01:40;33.03;;;18.73;;
3405;SDS011;10008;48.682;9.016;2023-03-01T02:04:06;30.30;;;20.00;;
3405;SDS011;10008;48.682;9.016;2023-03-01T02:06:34;33.20;;;19.90;;
3405;SDS011;10008;48.682;9.016;2023-03-01T02:09:16;28.70;;;18.70;;
3405;SDS011;10008;48.682;9.016;2023-03-01T02:11:45;32.93;;;21.00;;
3405;SDS011;10008;48.682;9.016;2023-03-01T02:14:14;33.33;;;21.57;;
3405;SDS011;10008;48.682;9.016;2023-03-01T02:16:41;36.40;;;19.87;;
3405;SDS011;10008;48.682;9.016;2023-03-01T02:19:07;29.87;;;19.03;;
3405;SDS011;10008;48.682;9.016;2023-03-01T02:21:41;32.10;;;20.27;;
3405;SDS011;10008;48.682;9.016;2023-03-01T02:24:26;33.33;;;20.13;;
3405;SDS011;10008;48.682;9.016;2023-03-01T02:27:03;31.20;;;19.63;;
3405;SDS011;10008;48.682;9.016;2023-03-01T02:29:28;32.20;;;20.43;;
3405;SDS011;10008;48.682;9.016;2023-03-01T02:31:55;34.70;;;20.70;;
3405;SDS011;10008;48.682;9.016;2023-03-01T02:34:25;32.00;;;19.63;;
3405;SDS011;10008;48.682;9.016;2023-03-01T02:36:57;30.13;;;19.67;;
3405;SDS011;10008;48.682;9.016;2023-03-01T02:39:42;33.73;;;20.20;;
3405;SDS011;10008;48.682;9.016;2023-03-01T02:42:14;31.33;;;21.17;;
3405;SDS011;10008;48.682;9.016;2023-03-01T02:44:43;30.73;;;20.40;;
3405;SDS011;10008;48.682;9.016;2023-03-01T02:47:09;30.10;;;20.70;;
3405;SDS011;10008;48.682;9.016;2023-03-01T02:49:35;33.80;;;19.77;;
3405;SDS011;10008;48.682;9.016;2023-03-01T02:57:41;28.40;;;20.00;;
3405;SDS011;10008;48.682;9.016;2023-03-01T03:00:11;34.00;;;22.30;;
3405;SDS011;10008;48.682;9.016;2023-03-01T03:02:46;31.30;;;21.23;;
3405;SDS011;10008;48.682;9.016;2023-03-01T03:05:18;30.23;;;20.90;;
3405;SDS011;10008;48.682;9.016;2023-03-01T03:07:52;29.60;;;21.30;;
3405;SDS011;10008;48.682;9.016;2023-03-01T03:10:23;28.83;;;20.47;;
3405;SDS011;10008;48.682;9.016;2023-03-01T03:12:55;29.67;;;20.90;;
3405;SDS011;10008;48.682;9.016;2023-03-01T03:15:23;29.33;;;21.43;;
3405;SDS011;10008;48.682;9.016;2023-03-01T03:17:50;34.03;;;22.00;;
3405;SDS011;10008;48.682;9.016;2023-03-01T03:20:18;32.23;;;21.20;;
3405;SDS011;10008;48.682;9.016;2023-03-01T03:22:49;32.53;;;22.20;;
3405;SDS011;10008;48.682;9.016;2023-03-01T03:25:17;32.33;;;22.83;;
3405;SDS011;10008;48.682;9.016;2023-03-01T03:27:44;31.53;;;22.00;;
3405;SDS011;10008;48.682;9.016;2023-03-01T03:30:11;33.53;;;21.43;;
3405;SDS011;10008;48.682;9.016;2023-03-01T03:32:40;31.53;;;21.10;;
3405;SDS011;10008;48.682;9.016;2023-03-01T03:35:08;32.20;;;22.40;;
3405;SDS011;10008;48.682;9.016;2023-03-01T03:37:36;32.33;;;21.20;;
3405;SDS011;10008;48.682;9.016;2023-03-01T03:40:21;30.10;;;21.10;;
3405;SDS011;10008;48.682;9.016;2023-03-01T03:42:46;31.40;;;22.23;;
3405;SDS011;10008;48.682;9.016;2023-03-01T03:45:13;33.00;;;23.37;;
3405;SDS011;10008;48.682;9.016;2023-03-01T03:47:39;31.70;;;21.20;;
3405;SDS011;10008;48.682;9.016;2023-03-01T03:50:05;33.17;;;22.30;;
3405;SDS011;10008;48.682;9.016;2023-03-01T03:52:32;34.60;;;23.83;;
3405;SDS011;10008;48.682;9.016;2023-03-01T03:54:58;31.87;;;21.80;;
3405;SDS011;10008;48.682;9.016;2023-03-01T03:57:23;35.00;;;23.33;;
3405;SDS011;10008;48.682;9.016;2023-03-01T03:59:49;31.07;;;22.73;;
3405;SDS011;10008;48.682;9.016;2023-03-01T04:02:15;34.47;;;23.37;;
3405;SDS011;10008;48.682;9.016;2023-03-01T04:04:47;31.87;;;23.20;;
3405;SDS011;10008;48.682;9.016;2023-03-01T04:07:17;34.33;;;22.90;;
3405;SDS011;10008;48.682;9.016;2023-03-01T04:09:43;33.60;;;22.57;;
3405;SDS011;10008;48.682;9.016;2023-03-01T04:12:09;33.27;;;22.93;;
3405;SDS011;10008;48.682;9.016;2023-03-01T04:14:35;29.40;;;21.80;;
3405;SDS011;10008;48.682;9.016;2023-03-01T04:17:01;30.07;;;22.07;;
3405;SDS011;10008;48.682;9.016;2023-03-01T04:19:33;34.53;;;22.80;;
3405;SDS011;10008;48.682;9.016;2023-03-01T04:22:04;33.40;;;23.20;;
3405;SDS011;10008;48.682;9.016;2023-03-01T04:24:37;32.57;;;23.53;;
3405;SDS011;10008;48.682;9.016;2023-03-01T04:27:03;32.20;;;22.27;;
3405;SDS011;10008;48.682;9.016;2023-03-01T04:29:29;32.03;;;23.63;;
3405;SDS011;10008;48.682;9.016;2023-03-01T04:31:54;33.57;;;23.23;;
3405;SDS011;10008;48.682;9.016;2023-03-01T04:34:20;33.63;;;23.37;;
3405;SDS011;10008;48.682;9.016;2023-03-01T04:36:46;34.03;;;23.23;;
3405;SDS011;10008;48.682;9.016;2023-03-01T04:39:12;35.27;;;22.97;;
3405;SDS011;10008;48.682;9.016;2023-03-01T04:41:38;34.10;;;23.60;;
3405;SDS011;10008;48.682;9.016;2023-03-01T04:44:05;35.20;;;24.90;;
3405;SDS011;10008;48.682;9.016;2023-03-01T04:46:31;33.77;;;23.33;;
3405;SDS011;10008;48.682;9.016;2023-03-01T04:48:57;35.03;;;24.33;;
3405;SDS011;10008;48.682;9.016;2023-03-01T04:51:22;33.30;;;23.67;;
3405;SDS011;10008;48.682;9.016;2023-03-01T04:53:48;33.57;;;23.33;;
3405;SDS011;10008;48.682;9.016;2023-03-01T04:56:15;35.67;;;23.07;;
3405;SDS011;10008;48.682;9.016;2023-03-01T04:58:43;33.40;;;23.17;;
3405;SDS011;10008;48.682;9.016;2023-03-01T05:01:18;32.30;;;22.53;;
3405;SDS011;10008;48.682;9.016;2023-03-01T05:03:46;33.57;;;23.07;;
3405;SDS011;10008;48.682;9.016;2023-03-01T05:06:14;33.10;;;23.00;;
3405;SDS011;10008;48.682;9.016;2023-03-01T05:08:41;36.10;;;23.63;;
3405;SDS011;10008;48.682;9.016;2023-03-01T05:11:06;33.07;;;23.83;;
3405;SDS011;10008;48.682;9.016;2023-03-01T05:13:34;32.20;;;23.03;;
3405;SDS011;10008;48.682;9.016;2023-03-01T05:16:01;35.20;;;24.37;;
3405;SDS011;10008;48.682;9.016;2023-03-01T05:18:29;38.67;;;24.60;;
3405;SDS011;10008;48.682;9.016;2023-03-01T05:21:02;34.93;;;23.30;;
3405;SDS011;10008;48.682;9.016;2023-03-01T05:23:33;32.87;;;23.43;;
3405;SDS011;10008;48.682;9.016;2023-03-01T05:26:02;35.97;;;24.97;;
3405;SDS011;10008;48.682;9.016;2023-03-01T05:28:29;33.50;;;23.30;;
3405;SDS011;10008;48.682;9.016;2023-03-01T05:30:55;33.10;;;22.07;;
3405;SDS011;10008;48.682;9.016;2023-03-01T05:33:22;35.60;;;22.57;;
3405;SDS011;10008;48.682;9.016;2023-03-01T05:35:49;36.17;;;23.10;;
3405;SDS011;10008;48.682;9.016;2023-03-01T05:38:17;33.17;;;23.33;;
3405;SDS011;10008;48.682;9.016;2023-03-01T05:40:44;37.80;;;24.03;;
3405;SDS011;10008;48.682;9.016;2023-03-01T05:43:11;37.07;;;23.70;;
3405;SDS011;10008;48.682;9.016;2023-03-01T05:45:39;34.63;;;23.33;;
3405;SDS011;10008;48.682;9.016;2023-03-01T05:48:05;35.97;;;23.60;;
3405;SDS011;10008;48.682;9.016;2023-03-01T05:50:34;35.70;;;24.40;;
3405;SDS011;10008;48.682;9.016;2023-03-01T05:53:03;33.50;;;22.23;;
3405;SDS011;10008;48.682;9.016;2023-03-01T05:55:33;32.90;;;22.83;;
3405;SDS011;10008;48.682;9.016;2023-03-01T05:58:01;35.70;;;24.23;;
3405;SDS011;10008;48.682;9.016;2023-03-01T06:00:29;35.90;;;23.73;;
3405;SDS011;10008;48.682;9.016;2023-03-01T06:02:55;35.80;;;24.20;;
3405;SDS011;10008;48.682;9.016;2023-03-01T06:05:22;31.43;;;22.63;;
3405;SDS011;10008;48.682;9.016;2023-03-01T06:07:49;32.23;;;24.20;;
3405;SDS011;10008;48.682;9.016;2023-03-01T06:10:16;35.43;;;24.60;;
3405;SDS011;10008;48.682;9.016;2023-03-01T06:12:43;31.43;;;23.57;;
3405;SDS011;10008;48.682;9.016;2023-03-01T06:15:09;34.70;;;23.73;;
3405;SDS011;10008;48.682;9.016;2023-03-01T06:17:38;34.50;;;25.23;;
3405;SDS011;10008;48.682;9.016;2023-03-01T06:20:09;34.30;;;23.30;;
3405;SDS011;10008;48.682;9.016;2023-03-01T06:22:40;37.27;;;25.40;;
3405;SDS011;10008;48.682;9.016;2023-03-01T06:25:07;35.73;;;25.23;;
3405;SDS011;10008;48.682;9.016;2023-03-01T06:27:33;33.67;;;24.83;;
3405;SDS011;10008;48.682;9.016;2023-03-01T06:29:59;37.83;;;25.03;;
3405;SDS011;10008;48.682;9.016;2023-03-01T06:32:25;34.10;;;25.10;;
3405;SDS011;10008;48.682;9.016;2023-03-01T06:34:50;37.50;;;26.23;;
3405;SDS011;10008;48.682;9.016;2023-03-01T06:37:17;35.30;;;25.00;;
3405;SDS011;10008;48.682;9.016;2023-03-01T06:39:42;34.17;;;25.23;;
3405;SDS011;10008;48.682;9.016;2023-03-01T06:42:08;35.30;;;25.10;;
3405;SDS011;10008;48.682;9.016;2023-03-01T06:44:37;37.03;;;25.80;;
3405;SDS011;10008;48.682;9.016;2023-03-01T06:47:03;33.63;;;24.20;;
3405;SDS011;10008;48.682;9.016;2023-03-01T06:49:29;36.53;;;26.90;;
3405;SDS011;10008;48.682;9.016;2023-03-01T06:51:55;35.43;;;24.40;;
3405;SDS011;10008;48.682;9.016;2023-03-01T06:54:21;35.80;;;25.43;;
3405;SDS011;10008;48.682;9.016;2023-03-01T06:56:48;35.10;;;25.73;;
3405;SDS011;10008;48.682;9.016;2023-03-01T06:59:14;37.37;;;26.10;;
3405;SDS011;10008;48.682;9.016;2023-03-01T07:01:41;37.90;;;26.77;;
3405;SDS011;10008;48.682;9.016;2023-03-01T07:04:07;35.50;;;25.30;;
3405;SDS011;10008;48.682;9.016;2023-03-01T07:06:33;35.30;;;25.40;;
3405;SDS011;10008;48.682;9.016;2023-03-01T07:08:58;38.80;;;25.93;;
3405;SDS011;10008;48.682;9.016;2023-03-01T07:11:24;35.43;;;25.60;;
3405;SDS011;10008;48.682;9.016;2023-03-01T07:13:50;39.57;;;27.10;;
3405;SDS011;10008;48.682;9.016;2023-03-01T07:16:15;37.67;;;26.30;;
3405;SDS011;10008;48.682;9.016;2023-03-01T07:18:41;33.60;;;25.43;;
3405;SDS011;10008;48.682;9.016;2023-03-01T07:21:08;37.20;;;26.60;;
3405;SDS011;10008;48.682;9.016;2023-03-01T07:23:34;39.30;;;26.00;;
3405;SDS011;10008;48.682;9.016;2023-03-01T07:26:00;33.40;;;24.87;;
3405;SDS011;10008;48.682;9.016;2023-03-01T07:28:26;36.10;;;25.67;;
3405;SDS011;10008;48.682;9.016;2023-03-01T07:30:52;36.60;;;27.10;;
3405;SDS011;10008;48.682;9.016;2023-03-01T07:33:19;36.17;;;26.00;;
3405;SDS011;10008;48.682;9.016;2023-03-01T07:35:45;36.77;;;26.60;;
3405;SDS011;10008;48.682;9.016;2023-03-01T07:38:10;36.40;;;25.53;;
3405;SDS011;10008;48.682;9.016;2023-03-01T07:40:36;34.20;;;26.13;;
3405;SDS011;10008;48.682;9.016;2023-03-01T07:43:02;41.43;;;28.30;;
3405;SDS011;10008;48.682;9.016;2023-03-01T07:45:27;36.10;;;27.50;;
3405;SDS011;10008;48.682;9.016;2023-03-01T07:47:54;36.10;;;25.57;;
3405;SDS011;10008;48.682;9.016;2023-03-01T07:50:20;39.03;;;26.40;;
3405;SDS011;10008;48.682;9.016;2023-03-01T07:52:47;37.67;;;25.03;;
3405;SDS011;10008;48.682;9.016;2023-03-01T07:55:14;38.10;;;27.70;;
3405;SDS011;10008;48.682;9.016;2023-03-01T07:57:41;37.13;;;27.23;;
3405;SDS011;10008;48.682;9.016;2023-03-01T08:00:08;37.70;;;26.63;;
3405;SDS011;10008;48.682;9.016;2023-03-01T08:02:39;36.53;;;27.07;;
3405;SDS011;10008;48.682;9.016;2023-03-01T08:05:07;39.97;;;28.57;;
3405;SDS011;10008;48.682;9.016;2023-03-01T08:07:34;37.30;;;27.40;;
3405;SDS011;10008;48.682;9.016;2023-03-01T08:10:00;41.50;;;29.70;;
3405;SDS011;10008;48.682;9.016;2023-03-01T08:12:25;35.53;;;26.80;;
3405;SDS011;10008;48.682;9.016;2023-03-01T08:14:53;34.83;;;26.87;;
3405;SDS011;10008;48.682;9.016;2023-03-01T08:17:19;34.90;;;27.40;;
3405;SDS011;10008;48.682;9.016;2023-03-01T08:19:45;37.37;;;27.73;;
3405;SDS011;10008;48.682;9.016;2023-03-01T08:22:11;35.63;;;26.30;;
3405;SDS011;10008;48.682;9.016;2023-03-01T08:24:36;34.13;;;26.80;;
3405;SDS011;10008;48.682;9.016;2023-03-01T08:27:03;32.90;;;28.23;;
3405;SDS011;10008;48.682;9.016;2023-03-01T08:29:32;33.13;;;27.50;;
3405;SDS011;10008;48.682;9.016;2023-03-01T08:31:58;34.60;;;28.20;;
3405;SDS011;10008;48.682;9.016;2023-03-01T08:34:24;33.83;;;29.77;;
3405;SDS011;10008;48.682;9.016;2023-03-01T08:36:51;33.13;;;29.53;;
3405;SDS011;10008;48.682;9.016;2023-03-01T08:39:17;37.37;;;32.70;;
3405;SDS011;10008;48.682;9.016;2023-03-01T08:41:44;37.30;;;31.50;;
3405;SDS011;10008;48.682;9.016;2023-03-01T08:44:11;35.07;;;30.10;;
3405;SDS011;10008;48.682;9.016;2023-03-01T08:46:39;34.00;;;29.70;;
3405;SDS011;10008;48.682;9.016;2023-03-01T08:49:16;34.57;;;30.77;;
3405;SDS011;10008;48.682;9.016;2023-03-01T08:51:43;33.43;;;29.87;;
3405;SDS011;10008;48.682;9.016;2023-03-01T08:54:11;34.73;;;29.63;;
3405;SDS011;10008;48.682;9.016;2023-03-01T08:56:40;35.30;;;30.33;;
3405;SDS011;10008;48.682;9.016;2023-03-01T08:59:06;34.77;;;30.97;;
3405;SDS011;10008;48.682;9.016;2023-03-01T09:01:32;34.03;;;29.93;;
3405;SDS011;10008;48.682;9.016;2023-03-01T09:03:58;34.03;;;30.43;;
3405;SDS011;10008;48.682;9.016;2023-03-01T09:06:24;34.23;;;30.23;;
3405;SDS011;10008;48.682;9.016;2023-03-01T09:08:50;34.03;;;30.47;;
3405;SDS011;10008;48.682;9.016;2023-03-01T09:11:18;34.63;;;30.93;;
3405;SDS011;10008;48.682;9.016;2023-03-01T09:13:45;35.30;;;31.60;;
3405;SDS011;10008;48.682;9.016;2023-03-01T09:16:12;36.87;;;32.63;;
3405;SDS011;10008;48.682;9.016;2023-03-01T09:18:40;33.97;;;30.37;;
3405;SDS011;10008;48.682;9.016;2023-03-01T09:21:10;32.40;;;29.03;;
3405;SDS011;10008;48.682;9.016;2023-03-01T09:23:38;35.00;;;31.20;;
3405;SDS011;10008;48.682;9.016;2023-03-01T09:26:10;35.10;;;31.20;;
3405;SDS011;10008;48.682;9.016;2023-03-01T09:28:45;34.00;;;30.30;;
3405;SDS011;10008;48.682;9.016;2023-03-01T09:31:11;35.43;;;30.77;;
3405;SDS011;10008;48.682;9.016;2023-03-01T09:33:38;35.83;;;30.60;;
3405;SDS011;10008;48.682;9.016;2023-03-01T09:36:06;35.40;;;30.70;;
3405;SDS011;10008;48.682;9.016;2023-03-01T09:38:33;34.03;;;30.50;;
3405;SDS011;10008;48.682;9.016;2023-03-01T09:40:59;33.80;;;30.20;;
3405;SDS011;10008;48.682;9.016;2023-03-01T09:46:08;33.43;;;29.83;;
3405;SDS011;10008;48.682;9.016;2023-03-01T09:48:43;32.60;;;29.30;;
3405;SDS011;10008;48.682;9.016;2023-03-01T09:51:16;33.70;;;30.20;;
3405;SDS011;10008;48.682;9.016;2023-03-01T09:53:44;34.77;;;31.00;;
3405;SDS011;10008;48.682;9.016;2023-03-01T10:01:41;34.40;;;30.63;;
3405;SDS011;10008;48.682;9.016;2023-03-01T10:04:48;34.87;;;31.07;;
3405;SDS011;10008;48.682;9.016;2023-03-01T10:09:59;33.43;;;30.03;;
3405;SDS011;10008;48.682;9.016;2023-03-01T10:12:34;34.00;;;30.50;;
3405;SDS011;10008;48.682;9.016;2023-03-01T10:17:34;33.30;;;29.70;;
3405;SDS011;10008;48.682;9.016;2023-03-01T10:20:19;33.77;;;30.30;;
3405;SDS011;10008;48.682;9.016;2023-03-01T10:22:54;34.77;;;31.13;;
3405;SDS011;10008;48.682;9.016;2023-03-01T10:25:28;34.27;;;30.67;;
3405;SDS011;10008;48.682;9.016;2023-03-01T10:30:52;35.83;;;31.10;;
3405;SDS011;10008;48.682;9.016;2023-03-01T10:33:20;33.03;;;29.63;;
3405;SDS011;10008;48.682;9.016;2023-03-01T10:35:52;33.87;;;30.30;;
3405;SDS011;10008;48.682;9.016;2023-03-01T10:38:18;34.80;;;31.20;;
3405;SDS011;10008;48.682;9.016;2023-03-01T10:40:57;33.67;;;30.07;;
3405;SDS011;10008;48.682;9.016;2023-03-01T10:43:24;33.93;;;29.80;;
3405;SDS011;10008;48.682;9.016;2023-03-01T10:45:53;34.20;;;30.50;;
3405;SDS011;10008;48.682;9.016;2023-03-01T10:48:23;34.70;;;31.00;;
3405;SDS011;10008;48.682;9.016;2023-03-01T10:56:07;33.60;;;30.10;;
3405;SDS011;10008;48.682;9.016;2023-03-01T11:01:35;32.43;;;29.13;;
3405;SDS011;10008;48.682;9.016;2023-03-01T11:06:37;31.77;;;28.57;;
3405;SDS011;10008;48.682;9.016;2023-03-01T11:09:18;33.60;;;29.40;;
3405;SDS011;10008;48.682;9.016;2023-03-01T11:11:46;34.60;;;31.10;;
3405;SDS011;10008;48.682;9.016;2023-03-01T11:16:45;33.33;;;29.93;;
3405;SDS011;10008;48.682;9.016;2023-03-01T11:19:15;40.10;;;31.27;;
3405;SDS011;10008;48.682;9.016;2023-03-01T11:22:07;33.50;;;30.20;;
3405;SDS011;10008;48.682;9.016;2023-03-01T11:24:43;33.30;;;29.90;;
3405;SDS011;10008;48.682;9.016;2023-03-01T11:27:16;33.60;;;30.07;;
3405;SDS011;10008;48.682;9.016;2023-03-01T11:30:05;32.97;;;29.67;;
3405;SDS011;10008;48.682;9.016;2023-03-01T11:32:42;32.67;;;29.37;;
3405;SDS011;10008;48.682;9.016;2023-03-01T11:35:29;32.33;;;29.10;;
3405;SDS011;10008;48.682;9.016;2023-03-01T11:40:42;32.23;;;29.00;;
3405;SDS011;10008;48.682;9.016;2023-03-01T11:43:19;33.20;;;29.80;;
3405;SDS011;10008;48.682;9.016;2023-03-01T11:46:17;32.30;;;28.80;;
3405;SDS011;10008;48.682;9.016;2023-03-01T11:52:22;33.43;;;29.90;;
3405;SDS011;10008;48.682;9.016;2023-03-01T11:55:19;33.17;;;29.77;;
3405;SDS011;10008;48.682;9.016;2023-03-01T12:01:07;32.70;;;29.27;;
3405;SDS011;10008;48.682;9.016;2023-03-01T12:06:50;33.03;;;29.63;;
3405;SDS011;10008;48.682;9.016;2023-03-01T12:14:52;34.87;;;31.20;;
3405;SDS011;10008;48.682;9.016;2023-03-01T12:17:39;32.67;;;29.27;;
3405;SDS011;10008;48.682;9.016;2023-03-01T12:21:12;33.10;;;29.73;;
3405;SDS011;10008;48.682;9.016;2023-03-01T12:31:38;33.27;;;29.90;;
3405;SDS011;10008;48.682;9.016;2023-03-01T12:40:21;31.37;;;28.07;;
3405;SDS011;10008;48.682;9.016;2023-03-01T12:50:48;31.63;;;28.53;;
3405;SDS011;10008;48.682;9.016;2023-03-01T12:53:23;31.87;;;28.57;;
3405;SDS011;10008;48.682;9.016;2023-03-01T12:55:55;31.50;;;28.13;;
3405;SDS011;10008;48.682;9.016;2023-03-01T13:01:02;32.80;;;29.20;;
3405;SDS011;10008;48.682;9.016;2023-03-01T13:03:55;32.57;;;29.27;;
3405;SDS011;10008;48.682;9.016;2023-03-01T13:12:42;31.43;;;28.33;;
3405;SDS011;10008;48.682;9.016;2023-03-01T13:17:52;31.83;;;28.53;;
3405;SDS011;10008;48.682;9.016;2023-03-01T13:20:45;29.53;;;26.63;;
3405;SDS011;10008;48.682;9.016;2023-03-01T13:31:06;30.43;;;27.50;;
3405;SDS011;10008;48.682;9.016;2023-03-01T13:33:53;32.87;;;27.50;;
3405;SDS011;10008;48.682;9.016;2023-03-01T13:47:36;29.27;;;26.27;;
3405;SDS011;10008;48.682;9.016;2023-03-01T13:49:45;28.70;;;25.77;;
3405;SDS011;10008;48.682;9.016;2023-03-01T13:52:27;28.33;;;25.43;;
3405;SDS011;10008;48.682;9.016;2023-03-01T13:57:39;29.00;;;26.20;;
3405;SDS011;10008;48.682;9.016;2023-03-01T14:00:06;29.40;;;26.50;;
3405;SDS011;10008;48.682;9.016;2023-03-01T14:03:10;29.07;;;26.13;;
3405;SDS011;10008;48.682;9.016;2023-03-01T14:05:39;29.50;;;26.60;;
3405;SDS011;10008;48.682;9.016;2023-03-01T14:08:17;30.60;;;27.60;;
3405;SDS011;10008;48.682;9.016;2023-03-01T14:19:03;31.30;;;28.10;;
3405;SDS011;10008;48.682;9.016;2023-03-01T14:24:51;32.43;;;29.03;;
3405;SDS011;10008;48.682;9.016;2023-03-01T14:27:23;32.23;;;28.97;;
3405;SDS011;10008;48.682;9.016;2023-03-01T14:30:02;32.20;;;28.90;;
3405;SDS011;10008;48.682;9.016;2023-03-01T14:32:35;31.10;;;28.00;;
3405;SDS011;10008;48.682;9.016;2023-03-01T14:35:01;32.80;;;29.50;;
3405;SDS011;10008;48.682;9.016;2023-03-01T14:37:28;32.17;;;28.77;;
3405;SDS011;10008;48.682;9.016;2023-03-01T14:39:56;32.10;;;28.60;;
3405;SDS011;10008;48.682;9.016;2023-03-01T14:42:23;31.67;;;28.43;;
3405;SDS011;10008;48.682;9.016;2023-03-01T14:44:52;34.23;;;28.20;;
3405;SDS011;10008;48.682;9.016;2023-03-01T14:47:23;31.97;;;28.63;;
3405;SDS011;10008;48.682;9.016;2023-03-01T14:49:57;33.70;;;28.00;;
3405;SDS011;10008;48.682;9.016;2023-03-01T14:52:42;32.47;;;29.07;;
3405;SDS011;10008;48.682;9.016;2023-03-01T14:55:54;32.43;;;29.13;;
3405;SDS011;10008;48.682;9.016;2023-03-01T14:58:09;32.83;;;29.23;;
3405;SDS011;10008;48.682;9.016;2023-03-01T15:00:38;33.33;;;29.73;;
3405;SDS011;10008;48.682;9.016;2023-03-01T15:03:12;36.17;;;30.57;;
3405;SDS011;10008;48.682;9.016;2023-03-01T15:05:42;35.80;;;31.80;;
3405;SDS011;10008;48.682;9.016;2023-03-01T15:08:15;34.37;;;30.67;;
3405;SDS011;10008;48.682;9.016;2023-03-01T15:10:54;35.10;;;31.40;;
3405;SDS011;10008;48.682;9.016;2023-03-01T15:13:28;33.90;;;29.93;;
3405;SDS011;10008;48.682;9.016;2023-03-01T15:16:07;32.77;;;29.30;;
3405;SDS011;10008;48.682;9.016;2023-03-01T15:18:36;36.30;;;30.67;;
3405;SDS011;10008;48.682;9.016;2023-03-01T15:21:06;33.17;;;29.57;;
3405;SDS011;10008;48.682;9.016;2023-03-01T15:23:34;33.50;;;30.00;;
3405;SDS011;10008;48.682;9.016;2023-03-01T15:26:03;36.30;;;30.80;;
3405;SDS011;10008;48.682;9.016;2023-03-01T15:28:30;33.57;;;29.43;;
3405;SDS011;10008;48.682;9.016;2023-03-01T15:31:38;32.40;;;28.77;;
3405;SDS011;10008;48.682;9.016;2023-03-01T15:34:10;33.70;;;29.80;;
3405;SDS011;10008;48.682;9.016;2023-03-01T15:36:47;33.10;;;29.50;;
3405;SDS011;10008;48.682;9.016;2023-03-01T15:39:32;33.20;;;29.60;;
3405;SDS011;10008;48.682;9.016;2023-03-01T15:42:06;34.37;;;30.47;;
3405;SDS011;10008;48.682;9.016;2023-03-01T15:44:33;33.67;;;30.00;;
3405;SDS011;10008;48.682;9.016;2023-03-01T15:47:01;34.40;;;30.53;;
3405;SDS011;10008;48.682;9.016;2023-03-01T15:52:19;34.40;;;30.00;;
3405;SDS011;10008;48.682;9.016;2023-03-01T15:54:57;37.73;;;30.60;;
3405;SDS011;10008;48.682;9.016;2023-03-01T15:57:25;35.33;;;29.17;;
3405;SDS011;10008;48.682;9.016;2023-03-01T15:59:51;36.27;;;30.70;;
3405;SDS011;10008;48.682;9.016;2023-03-01T16:02:17;34.10;;;29.77;;
3405;SDS011;10008;48.682;9.016;2023-03-01T16:04:46;42.90;;;31.97;;
3405;SDS011;10008;48.682;9.016;2023-03-01T16:07:13;36.60;;;31.37;;
3405;SDS011;10008;48.682;9.016;2023-03-01T16:09:39;34.00;;;30.27;;
3405;SDS011;10008;48.682;9.016;2023-03-01T16:12:05;34.53;;;29.33;;
3405;SDS011;10008;48.682;9.016;2023-03-01T16:14:34;35.17;;;30.00;;
3405;SDS011;10008;48.682;9.016;2023-03-01T16:16:59;32.53;;;29.03;;
3405;SDS011;10008;48.682;9.016;2023-03-01T16:19:25;33.37;;;28.63;;
3405;SDS011;10008;48.682;9.016;2023-03-01T16:21:51;35.17;;;27.50;;
3405;SDS011;10008;48.682;9.016;2023-03-01T16:24:16;34.67;;;29.30;;
3405;SDS011;10008;48.682;9.016;2023-03-01T16:26:42;35.67;;;29.20;;
3405;SDS011;10008;48.682;9.016;2023-03-01T16:29:08;32.50;;;28.20;;
3405;SDS011;10008;48.682;9.016;2023-03-01T16:31:34;34.87;;;29.27;;
3405;SDS011;10008;48.682;9.016;2023-03-01T16:33:59;34.67;;;29.10;;
3405;SDS011;10008;48.682;9.016;2023-03-01T16:36:26;37.63;;;29.17;;
3405;SDS011;10008;48.682;9.016;2023-03-01T16:38:53;36.10;;;29.60;;
3405;SDS011;10008;48.682;9.016;2023-03-01T16:41:22;32.80;;;28.40;;
3405;SDS011;10008;48.682;9.016;2023-03-01T16:43:49;35.17;;;29.40;;
3405;SDS011;10008;48.682;9.016;2023-03-01T16:46:19;33.10;;;27.60;;
3405;SDS011;10008;48.682;9.016;2023-03-01T16:48:47;34.53;;;28.97;;
3405;SDS011;10008;48.682;9.016;2023-03-01T16:51:13;34.30;;;28.67;;